sensor_id;sensor_type;location;lat;lon;timestamp;P1;durP1;ratioP1;P2;durP2;ratioP2
23001;SDS011;11667;51.706;4.856;2023-06-22T00:00:17;4.92;;;3.30;;
23001;SDS011;11667;51.706;4.856;2023-06-22T00:02:49;4.97;;;3.23;;
23001;SDS011;11667;51.706;4.856;2023-06-22T00:05:18;5.12;;;3.40;;
23001;SDS011;11667;51.706;4.856;2023-06-22T00:07:47;5.10;;;3.35;;
23001;SDS011;11667;51.706;4.856;2023-06-22T00:10:17;6.15;;;3.52;;
23001;SDS011;11667;51.706;4.856;2023-06-22T00:12:46;6.37;;;3.85;;
23001;SDS011;11667;51.706;4.856;2023-06-22T00:15:15;5.95;;;4.08;;
23001;SDS011;11667;51.706;4.856;2023-06-22T00:17:45;7.62;;;4.15;;
23001;SDS011;11667;51.706;4.856;2023-06-22T00:20:15;6.72;;;3.77;;
23001;SDS011;11667;51.706;4.856;2023-06-22T00:22:45;8.13;;;3.62;;
23001;SDS011;11667;51.706;4.856;2023-06-22T00:25:15;6.75;;;3.72;;
23001;SDS011;11667;51.706;4.856;2023-06-22T00:27:45;8.28;;;4.03;;
23001;SDS011;11667;51.706;4.856;2023-06-22T00:30:20;6.60;;;4.22;;
23001;SDS011;11667;51.706;4.856;2023-06-22T00:32:45;7.03;;;4.35;;
23001;SDS011;11667;51.706;4.856;2023-06-22T00:35:15;9.20;;;5.28;;
23001;SDS011;11667;51.706;4.856;2023-06-22T00:37:44;7.05;;;4.60;;
23001;SDS011;11667;51.706;4.856;2023-06-22T00:40:14;8.95;;;5.00;;
23001;SDS011;11667;51.706;4.856;2023-06-22T00:42:45;9.78;;;5.22;;
23001;SDS011;11667;51.706;4.856;2023-06-22T00:45:14;10.15;;;5.22;;
23001;SDS011;11667;51.706;4.856;2023-06-22T00:47:43;9.08;;;5.10;;
23001;SDS011;11667;51.706;4.856;2023-06-22T00:50:14;8.10;;;5.20;;
23001;SDS011;11667;51.706;4.856;2023-06-22T00:55:16;9.55;;;5.50;;
23001;SDS011;11667;51.706;4.856;2023-06-22T00:57:46;9.53;;;5.42;;
23001;SDS011;11667;51.706;4.856;2023-06-22T01:00:16;11.83;;;5.95;;
23001;SDS011;11667;51.706;4.856;2023-06-22T01:02:47;12.10;;;6.97;;
23001;SDS011;11667;51.706;4.856;2023-06-22T01:05:19;9.45;;;6.33;;
23001;SDS011;11667;51.706;4.856;2023-06-22T01:07:56;12.88;;;6.83;;
23001;SDS011;11667;51.706;4.856;2023-06-22T01:13:37;12.28;;;7.60;;
23001;SDS011;11667;51.706;4.856;2023-06-22T01:16:17;12.82;;;7.42;;
23001;SDS011;11667;51.706;4.856;2023-06-22T01:18:42;11.78;;;6.75;;
23001;SDS011;11667;51.706;4.856;2023-06-22T01:21:14;12.93;;;6.65;;
23001;SDS011;11667;51.706;4.856;2023-06-22T01:26:43;11.22;;;6.83;;
23001;SDS011;11667;51.706;4.856;2023-06-22T01:29:29;12.55;;;6.90;;
23001;SDS011;11667;51.706;4.856;2023-06-22T01:31:59;14.55;;;7.60;;
23001;SDS011;11667;51.706;4.856;2023-06-22T01:34:34;13.95;;;7.28;;
23001;SDS011;11667;51.706;4.856;2023-06-22T01:37:04;13.75;;;6.92;;
23001;SDS011;11667;51.706;4.856;2023-06-22T01:39:34;14.15;;;7.62;;
23001;SDS011;11667;51.706;4.856;2023-06-22T01:42:04;14.35;;;8.80;;
23001;SDS011;11667;51.706;4.856;2023-06-22T01:44:34;15.43;;;8.88;;
23001;SDS011;11667;51.706;4.856;2023-06-22T01:47:03;14.13;;;9.10;;
23001;SDS011;11667;51.706;4.856;2023-06-22T01:49:35;15.20;;;8.17;;
23001;SDS011;11667;51.706;4.856;2023-06-22T01:52:04;16.85;;;8.83;;
23001;SDS011;11667;51.706;4.856;2023-06-22T01:54:34;17.12;;;9.98;;
23001;SDS011;11667;51.706;4.856;2023-06-22T01:57:05;15.40;;;8.68;;
23001;SDS011;11667;51.706;4.856;2023-06-22T01:59:36;17.20;;;9.33;;
23001;SDS011;11667;51.706;4.856;2023-06-22T02:02:22;15.72;;;9.40;;
23001;SDS011;11667;51.706;4.856;2023-06-22T02:05:01;16.57;;;10.27;;
23001;SDS011;11667;51.706;4.856;2023-06-22T02:07:28;17.17;;;9.93;;
23001;SDS011;11667;51.706;4.856;2023-06-22T02:10:02;16.95;;;10.85;;
23001;SDS011;11667;51.706;4.856;2023-06-22T02:12:31;19.30;;;10.75;;
23001;SDS011;11667;51.706;4.856;2023-06-22T02:15:01;18.35;;;11.10;;
23001;SDS011;11667;51.706;4.856;2023-06-22T02:17:32;19.62;;;11.05;;
23001;SDS011;11667;51.706;4.856;2023-06-22T02:20:02;18.98;;;11.35;;
23001;SDS011;11667;51.706;4.856;2023-06-22T02:22:36;16.42;;;10.10;;
23001;SDS011;11667;51.706;4.856;2023-06-22T02:25:06;18.15;;;11.18;;
23001;SDS011;11667;51.706;4.856;2023-06-22T02:27:36;17.90;;;10.90;;
23001;SDS011;11667;51.706;4.856;2023-06-22T02:30:10;18.75;;;11.33;;
23001;SDS011;11667;51.706;4.856;2023-06-22T02:32:40;18.32;;;11.38;;
23001;SDS011;11667;51.706;4.856;2023-06-22T02:35:10;20.17;;;12.03;;
23001;SDS011;11667;51.706;4.856;2023-06-22T02:37:40;20.50;;;11.68;;
23001;SDS011;11667;51.706;4.856;2023-06-22T02:40:10;19.23;;;11.57;;
23001;SDS011;11667;51.706;4.856;2023-06-22T02:42:39;18.67;;;11.53;;
23001;SDS011;11667;51.706;4.856;2023-06-22T02:45:09;17.92;;;11.40;;
23001;SDS011;11667;51.706;4.856;2023-06-22T02:47:38;18.55;;;11.05;;
23001;SDS011;11667;51.706;4.856;2023-06-22T02:50:08;18.05;;;10.75;;
23001;SDS011;11667;51.706;4.856;2023-06-22T02:52:38;19.15;;;11.40;;
23001;SDS011;11667;51.706;4.856;2023-06-22T02:55:08;19.25;;;11.45;;
23001;SDS011;11667;51.706;4.856;2023-06-22T02:57:39;19.95;;;11.95;;
23001;SDS011;11667;51.706;4.856;2023-06-22T03:00:10;19.35;;;11.70;;
23001;SDS011;11667;51.706;4.856;2023-06-22T03:02:43;18.32;;;11.43;;
23001;SDS011;11667;51.706;4.856;2023-06-22T03:05:14;19.07;;;11.45;;
23001;SDS011;11667;51.706;4.856;2023-06-22T03:07:46;20.75;;;11.80;;
23001;SDS011;11667;51.706;4.856;2023-06-22T03:10:16;18.92;;;11.22;;
23001;SDS011;11667;51.706;4.856;2023-06-22T03:12:45;19.60;;;11.50;;
23001;SDS011;11667;51.706;4.856;2023-06-22T03:15:15;21.27;;;11.53;;
23001;SDS011;11667;51.706;4.856;2023-06-22T03:17:44;19.85;;;11.63;;
23001;SDS011;11667;51.706;4.856;2023-06-22T03:20:14;21.20;;;11.65;;
23001;SDS011;11667;51.706;4.856;2023-06-22T03:22:44;20.43;;;12.78;;
23001;SDS011;11667;51.706;4.856;2023-06-22T03:25:13;19.35;;;11.95;;
23001;SDS011;11667;51.706;4.856;2023-06-22T03:30:15;20.45;;;12.20;;
23001;SDS011;11667;51.706;4.856;2023-06-22T03:32:48;19.27;;;11.93;;
23001;SDS011;11667;51.706;4.856;2023-06-22T03:35:17;23.65;;;12.05;;
23001;SDS011;11667;51.706;4.856;2023-06-22T03:37:48;22.77;;;12.55;;
23001;SDS011;11667;51.706;4.856;2023-06-22T03:40:17;18.52;;;11.40;;
23001;SDS011;11667;51.706;4.856;2023-06-22T03:42:46;21.20;;;11.48;;
23001;SDS011;11667;51.706;4.856;2023-06-22T03:45:16;22.42;;;11.70;;
23001;SDS011;11667;51.706;4.856;2023-06-22T03:47:46;20.08;;;11.90;;
23001;SDS011;11667;51.706;4.856;2023-06-22T03:50:15;21.05;;;11.88;;
23001;SDS011;11667;51.706;4.856;2023-06-22T03:52:47;20.88;;;11.53;;
23001;SDS011;11667;51.706;4.856;2023-06-22T03:55:16;19.07;;;11.45;;
23001;SDS011;11667;51.706;4.856;2023-06-22T03:57:45;18.67;;;11.20;;
23001;SDS011;11667;51.706;4.856;2023-06-22T04:00:15;19.60;;;11.20;;
23001;SDS011;11667;51.706;4.856;2023-06-22T04:02:44;17.48;;;10.90;;
23001;SDS011;11667;51.706;4.856;2023-06-22T04:05:14;18.70;;;11.10;;
23001;SDS011;11667;51.706;4.856;2023-06-22T04:07:45;19.30;;;10.40;;
23001;SDS011;11667;51.706;4.856;2023-06-22T04:10:14;17.55;;;10.38;;
23001;SDS011;11667;51.706;4.856;2023-06-22T04:12:45;19.00;;;10.80;;
23001;SDS011;11667;51.706;4.856;2023-06-22T04:15:14;17.52;;;10.88;;
23001;SDS011;11667;51.706;4.856;2023-06-22T04:17:43;19.67;;;11.55;;
23001;SDS011;11667;51.706;4.856;2023-06-22T04:20:13;17.42;;;11.20;;
23001;SDS011;11667;51.706;4.856;2023-06-22T04:22:42;18.10;;;10.48;;
23001;SDS011;11667;51.706;4.856;2023-06-22T04:25:13;21.20;;;11.43;;
23001;SDS011;11667;51.706;4.856;2023-06-22T04:27:43;17.05;;;10.32;;
23001;SDS011;11667;51.706;4.856;2023-06-22T04:30:12;19.50;;;11.57;;
23001;SDS011;11667;51.706;4.856;2023-06-22T04:32:44;17.25;;;10.95;;
23001;SDS011;11667;51.706;4.856;2023-06-22T04:35:13;18.23;;;10.80;;
23001;SDS011;11667;51.706;4.856;2023-06-22T04:37:43;20.82;;;11.45;;
23001;SDS011;11667;51.706;4.856;2023-06-22T04:40:14;19.27;;;10.03;;
23001;SDS011;11667;51.706;4.856;2023-06-22T04:42:44;15.65;;;10.10;;
23001;SDS011;11667;51.706;4.856;2023-06-22T04:45:15;16.57;;;10.25;;
23001;SDS011;11667;51.706;4.856;2023-06-22T04:47:44;18.70;;;10.53;;
23001;SDS011;11667;51.706;4.856;2023-06-22T04:50:14;16.27;;;10.32;;
23001;SDS011;11667;51.706;4.856;2023-06-22T04:52:45;18.90;;;9.88;;
23001;SDS011;11667;51.706;4.856;2023-06-22T04:55:15;18.25;;;10.28;;
23001;SDS011;11667;51.706;4.856;2023-06-22T04:57:46;17.15;;;9.88;;
23001;SDS011;11667;51.706;4.856;2023-06-22T05:00:17;15.50;;;9.38;;
23001;SDS011;11667;51.706;4.856;2023-06-22T05:02:47;16.10;;;10.28;;
23001;SDS011;11667;51.706;4.856;2023-06-22T05:05:17;17.90;;;9.83;;
23001;SDS011;11667;51.706;4.856;2023-06-22T05:07:46;16.23;;;9.45;;
23001;SDS011;11667;51.706;4.856;2023-06-22T05:10:17;16.02;;;9.98;;
23001;SDS011;11667;51.706;4.856;2023-06-22T05:12:47;15.75;;;9.83;;
23001;SDS011;11667;51.706;4.856;2023-06-22T05:15:16;17.25;;;9.23;;
23001;SDS011;11667;51.706;4.856;2023-06-22T05:17:51;15.78;;;9.55;;
23001;SDS011;11667;51.706;4.856;2023-06-22T05:20:20;16.02;;;10.08;;
23001;SDS011;11667;51.706;4.856;2023-06-22T05:22:50;14.45;;;9.20;;
23001;SDS011;11667;51.706;4.856;2023-06-22T05:25:19;15.50;;;9.55;;
23001;SDS011;11667;51.706;4.856;2023-06-22T05:27:48;14.83;;;9.35;;
23001;SDS011;11667;51.706;4.856;2023-06-22T05:30:19;14.45;;;8.98;;
23001;SDS011;11667;51.706;4.856;2023-06-22T05:32:49;15.93;;;9.40;;
23001;SDS011;11667;51.706;4.856;2023-06-22T05:35:20;13.90;;;8.95;;
23001;SDS011;11667;51.706;4.856;2023-06-22T05:37:49;13.98;;;8.63;;
23001;SDS011;11667;51.706;4.856;2023-06-22T05:40:19;16.70;;;9.50;;
23001;SDS011;11667;51.706;4.856;2023-06-22T05:42:49;13.55;;;8.18;;
23001;SDS011;11667;51.706;4.856;2023-06-22T05:45:18;12.82;;;8.23;;
23001;SDS011;11667;51.706;4.856;2023-06-22T05:47:47;14.53;;;8.53;;
23001;SDS011;11667;51.706;4.856;2023-06-22T05:50:17;12.93;;;8.10;;
23001;SDS011;11667;51.706;4.856;2023-06-22T05:52:46;13.35;;;8.40;;
23001;SDS011;11667;51.706;4.856;2023-06-22T05:55:16;13.25;;;8.20;;
23001;SDS011;11667;51.706;4.856;2023-06-22T05:57:46;12.73;;;7.95;;
23001;SDS011;11667;51.706;4.856;2023-06-22T06:00:16;11.80;;;7.45;;
23001;SDS011;11667;51.706;4.856;2023-06-22T06:02:46;11.90;;;8.05;;
23001;SDS011;11667;51.706;4.856;2023-06-22T06:05:17;13.00;;;7.45;;
23001;SDS011;11667;51.706;4.856;2023-06-22T06:07:46;11.63;;;7.53;;
23001;SDS011;11667;51.706;4.856;2023-06-22T06:10:16;10.55;;;7.17;;
23001;SDS011;11667;51.706;4.856;2023-06-22T06:12:45;12.70;;;7.87;;
23001;SDS011;11667;51.706;4.856;2023-06-22T06:15:15;10.68;;;7.28;;
23001;SDS011;11667;51.706;4.856;2023-06-22T06:17:45;12.93;;;7.95;;
23001;SDS011;11667;51.706;4.856;2023-06-22T06:20:18;12.30;;;7.55;;
23001;SDS011;11667;51.706;4.856;2023-06-22T06:22:48;11.67;;;7.37;;
23001;SDS011;11667;51.706;4.856;2023-06-22T06:25:18;14.28;;;7.80;;
23001;SDS011;11667;51.706;4.856;2023-06-22T06:27:50;11.70;;;7.35;;
23001;SDS011;11667;51.706;4.856;2023-06-22T06:30:21;12.50;;;7.37;;
23001;SDS011;11667;51.706;4.856;2023-06-22T06:32:51;10.98;;;7.60;;
23001;SDS011;11667;51.706;4.856;2023-06-22T06:35:20;12.10;;;7.50;;
23001;SDS011;11667;51.706;4.856;2023-06-22T06:37:50;10.80;;;6.80;;
23001;SDS011;11667;51.706;4.856;2023-06-22T06:40:19;10.58;;;6.72;;
23001;SDS011;11667;51.706;4.856;2023-06-22T06:42:49;11.53;;;6.78;;
23001;SDS011;11667;51.706;4.856;2023-06-22T06:45:19;12.63;;;6.60;;
23001;SDS011;11667;51.706;4.856;2023-06-22T06:47:51;9.95;;;6.10;;
23001;SDS011;11667;51.706;4.856;2023-06-22T06:50:21;8.68;;;5.85;;
23001;SDS011;11667;51.706;4.856;2023-06-22T06:52:50;7.83;;;5.53;;
23001;SDS011;11667;51.706;4.856;2023-06-22T06:55:19;8.30;;;5.45;;
23001;SDS011;11667;51.706;4.856;2023-06-22T06:57:52;8.30;;;5.30;;
23001;SDS011;11667;51.706;4.856;2023-06-22T07:00:21;8.23;;;5.33;;
23001;SDS011;11667;51.706;4.856;2023-06-22T07:02:51;6.35;;;4.50;;
23001;SDS011;11667;51.706;4.856;2023-06-22T07:05:20;8.30;;;4.83;;
23001;SDS011;11667;51.706;4.856;2023-06-22T07:07:50;7.20;;;4.70;;
23001;SDS011;11667;51.706;4.856;2023-06-22T07:10:21;7.37;;;4.22;;
23001;SDS011;11667;51.706;4.856;2023-06-22T07:12:50;6.55;;;4.22;;
23001;SDS011;11667;51.706;4.856;2023-06-22T07:15:19;6.25;;;4.42;;
23001;SDS011;11667;51.706;4.856;2023-06-22T07:17:49;9.13;;;4.53;;
23001;SDS011;11667;51.706;4.856;2023-06-22T07:20:18;5.35;;;4.00;;
23001;SDS011;11667;51.706;4.856;2023-06-22T07:22:47;5.97;;;4.10;;
23001;SDS011;11667;51.706;4.856;2023-06-22T07:25:17;6.40;;;4.62;;
23001;SDS011;11667;51.706;4.856;2023-06-22T07:27:56;8.85;;;4.70;;
23001;SDS011;11667;51.706;4.856;2023-06-22T07:30:27;7.83;;;5.30;;
23001;SDS011;11667;51.706;4.856;2023-06-22T07:32:57;7.55;;;5.00;;
23001;SDS011;11667;51.706;4.856;2023-06-22T07:35:29;7.70;;;5.05;;
23001;SDS011;11667;51.706;4.856;2023-06-22T07:37:59;9.05;;;5.87;;
23001;SDS011;11667;51.706;4.856;2023-06-22T07:40:31;9.80;;;6.00;;
23001;SDS011;11667;51.706;4.856;2023-06-22T07:43:01;8.40;;;5.35;;
23001;SDS011;11667;51.706;4.856;2023-06-22T07:45:31;9.15;;;5.92;;
23001;SDS011;11667;51.706;4.856;2023-06-22T07:48:03;9.43;;;6.53;;
23001;SDS011;11667;51.706;4.856;2023-06-22T07:50:32;9.23;;;6.33;;
23001;SDS011;11667;51.706;4.856;2023-06-22T07:53:01;11.22;;;7.40;;
23001;SDS011;11667;51.706;4.856;2023-06-22T07:55:31;9.88;;;7.33;;
23001;SDS011;11667;51.706;4.856;2023-06-22T07:58:00;11.33;;;7.35;;
23001;SDS011;11667;51.706;4.856;2023-06-22T08:00:30;12.18;;;7.90;;
23001;SDS011;11667;51.706;4.856;2023-06-22T08:03:01;11.88;;;7.97;;
23001;SDS011;11667;51.706;4.856;2023-06-22T08:05:32;12.95;;;8.35;;
23001;SDS011;11667;51.706;4.856;2023-06-22T08:08:02;12.47;;;8.08;;
23001;SDS011;11667;51.706;4.856;2023-06-22T08:10:32;12.33;;;8.23;;
23001;SDS011;11667;51.706;4.856;2023-06-22T08:13:02;12.65;;;8.83;;
23001;SDS011;11667;51.706;4.856;2023-06-22T08:15:31;13.62;;;8.80;;
23001;SDS011;11667;51.706;4.856;2023-06-22T08:18:00;15.72;;;9.08;;
23001;SDS011;11667;51.706;4.856;2023-06-22T08:20:30;15.00;;;9.43;;
23001;SDS011;11667;51.706;4.856;2023-06-22T08:23:00;15.38;;;9.55;;
23001;SDS011;11667;51.706;4.856;2023-06-22T08:25:31;13.68;;;9.23;;
23001;SDS011;11667;51.706;4.856;2023-06-22T08:28:02;13.98;;;10.00;;
23001;SDS011;11667;51.706;4.856;2023-06-22T08:30:32;14.33;;;9.40;;
23001;SDS011;11667;51.706;4.856;2023-06-22T08:33:01;15.63;;;10.50;;
23001;SDS011;11667;51.706;4.856;2023-06-22T08:35:31;16.45;;;10.18;;
23001;SDS011;11667;51.706;4.856;2023-06-22T08:38:00;14.90;;;10.13;;
23001;SDS011;11667;51.706;4.856;2023-06-22T08:40:30;16.32;;;10.03;;
23001;SDS011;11667;51.706;4.856;2023-06-22T08:42:59;15.32;;;10.10;;
23001;SDS011;11667;51.706;4.856;2023-06-22T08:45:28;14.18;;;9.90;;
23001;SDS011;11667;51.706;4.856;2023-06-22T08:47:59;14.55;;;9.73;;
23001;SDS011;11667;51.706;4.856;2023-06-22T08:50:28;15.70;;;9.83;;
23001;SDS011;11667;51.706;4.856;2023-06-22T08:52:58;15.25;;;9.78;;
23001;SDS011;11667;51.706;4.856;2023-06-22T08:55:27;15.63;;;10.88;;
23001;SDS011;11667;51.706;4.856;2023-06-22T08:57:57;15.70;;;10.30;;
23001;SDS011;11667;51.706;4.856;2023-06-22T09:00:27;13.45;;;10.08;;
23001;SDS011;11667;51.706;4.856;2023-06-22T09:02:58;15.75;;;10.65;;
23001;SDS011;11667;51.706;4.856;2023-06-22T09:05:28;16.12;;;10.60;;
23001;SDS011;11667;51.706;4.856;2023-06-22T09:07:58;15.50;;;10.48;;
23001;SDS011;11667;51.706;4.856;2023-06-22T09:10:28;16.32;;;10.75;;
23001;SDS011;11667;51.706;4.856;2023-06-22T09:12:58;13.72;;;9.70;;
23001;SDS011;11667;51.706;4.856;2023-06-22T09:15:27;16.05;;;10.25;;
23001;SDS011;11667;51.706;4.856;2023-06-22T09:17:57;17.77;;;11.75;;
23001;SDS011;11667;51.706;4.856;2023-06-22T09:20:27;19.57;;;11.48;;
23001;SDS011;11667;51.706;4.856;2023-06-22T09:22:57;18.40;;;11.15;;
23001;SDS011;11667;51.706;4.856;2023-06-22T09:25:26;17.35;;;10.68;;
23001;SDS011;11667;51.706;4.856;2023-06-22T09:27:56;15.75;;;11.00;;
23001;SDS011;11667;51.706;4.856;2023-06-22T09:30:26;17.60;;;10.88;;
23001;SDS011;11667;51.706;4.856;2023-06-22T09:32:55;16.60;;;11.60;;
23001;SDS011;11667;51.706;4.856;2023-06-22T09:35:25;15.53;;;10.82;;
23001;SDS011;11667;51.706;4.856;2023-06-22T09:37:54;17.10;;;10.98;;
23001;SDS011;11667;51.706;4.856;2023-06-22T09:40:23;19.73;;;11.43;;
23001;SDS011;11667;51.706;4.856;2023-06-22T09:42:53;15.23;;;10.55;;
23001;SDS011;11667;51.706;4.856;2023-06-22T09:45:23;14.83;;;10.58;;
23001;SDS011;11667;51.706;4.856;2023-06-22T09:47:52;14.80;;;10.82;;
23001;SDS011;11667;51.706;4.856;2023-06-22T09:50:22;18.67;;;11.55;;
23001;SDS011;11667;51.706;4.856;2023-06-22T09:52:51;17.60;;;11.95;;
23001;SDS011;11667;51.706;4.856;2023-06-22T09:55:23;16.87;;;11.38;;
23001;SDS011;11667;51.706;4.856;2023-06-22T09:57:52;14.60;;;10.82;;
23001;SDS011;11667;51.706;4.856;2023-06-22T10:00:23;15.88;;;10.82;;
23001;SDS011;11667;51.706;4.856;2023-06-22T10:02:54;17.73;;;11.03;;
23001;SDS011;11667;51.706;4.856;2023-06-22T10:05:26;16.57;;;10.70;;
23001;SDS011;11667;51.706;4.856;2023-06-22T10:07:56;17.37;;;11.48;;
23001;SDS011;11667;51.706;4.856;2023-06-22T10:10:26;15.25;;;10.50;;
23001;SDS011;11667;51.706;4.856;2023-06-22T10:12:56;17.23;;;11.12;;
23001;SDS011;11667;51.706;4.856;2023-06-22T10:15:26;15.60;;;11.48;;
23001;SDS011;11667;51.706;4.856;2023-06-22T10:17:56;18.15;;;11.30;;
23001;SDS011;11667;51.706;4.856;2023-06-22T10:20:25;18.50;;;11.43;;
23001;SDS011;11667;51.706;4.856;2023-06-22T10:22:56;18.35;;;11.45;;
23001;SDS011;11667;51.706;4.856;2023-06-22T10:25:26;17.32;;;11.40;;
23001;SDS011;11667;51.706;4.856;2023-06-22T10:27:56;16.67;;;10.90;;
23001;SDS011;11667;51.706;4.856;2023-06-22T10:30:26;15.72;;;10.80;;
23001;SDS011;11667;51.706;4.856;2023-06-22T10:32:56;15.53;;;10.60;;
23001;SDS011;11667;51.706;4.856;2023-06-22T10:35:26;15.13;;;10.05;;
23001;SDS011;11667;51.706;4.856;2023-06-22T10:37:56;13.93;;;10.35;;
23001;SDS011;11667;51.706;4.856;2023-06-22T10:40:25;15.38;;;9.93;;
23001;SDS011;11667;51.706;4.856;2023-06-22T10:42:55;15.32;;;9.90;;
23001;SDS011;11667;51.706;4.856;2023-06-22T10:45:25;14.05;;;10.13;;
23001;SDS011;11667;51.706;4.856;2023-06-22T10:47:56;15.85;;;10.28;;
23001;SDS011;11667;51.706;4.856;2023-06-22T10:50:25;17.30;;;11.35;;
23001;SDS011;11667;51.706;4.856;2023-06-22T10:52:55;16.52;;;10.88;;
23001;SDS011;11667;51.706;4.856;2023-06-22T10:55:26;15.45;;;10.48;;
23001;SDS011;11667;51.706;4.856;2023-06-22T10:57:57;14.73;;;9.33;;
23001;SDS011;11667;51.706;4.856;2023-06-22T11:00:26;14.28;;;9.58;;
23001;SDS011;11667;51.706;4.856;2023-06-22T11:02:55;17.48;;;10.53;;
23001;SDS011;11667;51.706;4.856;2023-06-22T11:05:26;15.78;;;10.05;;
23001;SDS011;11667;51.706;4.856;2023-06-22T11:07:56;19.62;;;11.25;;
23001;SDS011;11667;51.706;4.856;2023-06-22T11:10:25;18.30;;;12.20;;
23001;SDS011;11667;51.706;4.856;2023-06-22T11:12:55;17.70;;;11.83;;
23001;SDS011;11667;51.706;4.856;2023-06-22T11:15:25;19.82;;;12.50;;
23001;SDS011;11667;51.706;4.856;2023-06-22T11:17:55;18.73;;;13.00;;
23001;SDS011;11667;51.706;4.856;2023-06-22T11:20:24;18.48;;;12.73;;
23001;SDS011;11667;51.706;4.856;2023-06-22T11:22:53;21.17;;;13.45;;
23001;SDS011;11667;51.706;4.856;2023-06-22T11:25:23;20.37;;;13.58;;
23001;SDS011;11667;51.706;4.856;2023-06-22T11:27:53;21.85;;;14.68;;
23001;SDS011;11667;51.706;4.856;2023-06-22T11:30:22;25.23;;;15.50;;
23001;SDS011;11667;51.706;4.856;2023-06-22T11:32:52;24.85;;;17.00;;
23001;SDS011;11667;51.706;4.856;2023-06-22T11:35:21;26.57;;;17.55;;
23001;SDS011;11667;51.706;4.856;2023-06-22T11:37:50;31.42;;;18.87;;
23001;SDS011;11667;51.706;4.856;2023-06-22T11:40:20;33.63;;;20.70;;
23001;SDS011;11667;51.706;4.856;2023-06-22T11:42:53;33.58;;;20.60;;
23001;SDS011;11667;51.706;4.856;2023-06-22T11:45:23;36.75;;;21.52;;
23001;SDS011;11667;51.706;4.856;2023-06-22T11:47:52;38.65;;;22.15;;
23001;SDS011;11667;51.706;4.856;2023-06-22T11:50:22;33.48;;;21.17;;
23001;SDS011;11667;51.706;4.856;2023-06-22T11:52:52;35.28;;;22.55;;
23001;SDS011;11667;51.706;4.856;2023-06-22T11:55:21;41.63;;;24.20;;
23001;SDS011;11667;51.706;4.856;2023-06-22T11:57:54;37.28;;;23.18;;
23001;SDS011;11667;51.706;4.856;2023-06-22T12:00:26;40.43;;;23.50;;
23001;SDS011;11667;51.706;4.856;2023-06-22T12:02:57;37.90;;;24.07;;
23001;SDS011;11667;51.706;4.856;2023-06-22T12:05:28;37.13;;;23.55;;
23001;SDS011;11667;51.706;4.856;2023-06-22T12:07:57;39.03;;;23.95;;
23001;SDS011;11667;51.706;4.856;2023-06-22T12:10:27;39.25;;;25.55;;
23001;SDS011;11667;51.706;4.856;2023-06-22T12:13:00;43.00;;;26.42;;
23001;SDS011;11667;51.706;4.856;2023-06-22T12:15:29;41.10;;;24.60;;
23001;SDS011;11667;51.706;4.856;2023-06-22T12:17:58;42.73;;;25.23;;
23001;SDS011;11667;51.706;4.856;2023-06-22T12:20:29;47.73;;;26.40;;
23001;SDS011;11667;51.706;4.856;2023-06-22T12:22:59;45.35;;;25.57;;
23001;SDS011;11667;51.706;4.856;2023-06-22T12:25:28;41.25;;;25.70;;
23001;SDS011;11667;51.706;4.856;2023-06-22T12:27:58;39.90;;;25.20;;
23001;SDS011;11667;51.706;4.856;2023-06-22T12:30:27;41.95;;;25.65;;
23001;SDS011;11667;51.706;4.856;2023-06-22T12:32:57;42.10;;;26.73;;
23001;SDS011;11667;51.706;4.856;2023-06-22T12:35:26;41.60;;;26.55;;
23001;SDS011;11667;51.706;4.856;2023-06-22T12:37:55;41.90;;;26.65;;
23001;SDS011;11667;51.706;4.856;2023-06-22T12:40:25;40.08;;;25.92;;
23001;SDS011;11667;51.706;4.856;2023-06-22T12:42:55;40.90;;;26.20;;
23001;SDS011;11667;51.706;4.856;2023-06-22T12:45:24;42.78;;;26.82;;
23001;SDS011;11667;51.706;4.856;2023-06-22T12:47:55;43.13;;;27.27;;
23001;SDS011;11667;51.706;4.856;2023-06-22T12:50:25;46.48;;;27.67;;
23001;SDS011;11667;51.706;4.856;2023-06-22T12:52:55;45.92;;;27.98;;
23001;SDS011;11667;51.706;4.856;2023-06-22T12:55:25;41.45;;;27.02;;
23001;SDS011;11667;51.706;4.856;2023-06-22T12:57:56;44.53;;;28.17;;
23001;SDS011;11667;51.706;4.856;2023-06-22T13:00:26;42.55;;;26.73;;
23001;SDS011;11667;51.706;4.856;2023-06-22T13:02:55;43.95;;;27.90;;
23001;SDS011;11667;51.706;4.856;2023-06-22T13:05:25;45.20;;;29.07;;
23001;SDS011;11667;51.706;4.856;2023-06-22T13:07:54;44.67;;;27.25;;
23001;SDS011;11667;51.706;4.856;2023-06-22T13:10:24;43.23;;;28.52;;
23001;SDS011;11667;51.706;4.856;2023-06-22T13:12:53;44.25;;;27.20;;
23001;SDS011;11667;51.706;4.856;2023-06-22T13:15:24;44.70;;;27.87;;
23001;SDS011;11667;51.706;4.856;2023-06-22T13:17:54;45.85;;;28.40;;
23001;SDS011;11667;51.706;4.856;2023-06-22T13:20:24;44.70;;;27.75;;
23001;SDS011;11667;51.706;4.856;2023-06-22T13:22:53;45.35;;;27.60;;
23001;SDS011;11667;51.706;4.856;2023-06-22T13:25:23;39.67;;;25.82;;
23001;SDS011;11667;51.706;4.856;2023-06-22T13:27:55;41.10;;;25.30;;
23001;SDS011;11667;51.706;4.856;2023-06-22T13:30:24;38.48;;;25.43;;
23001;SDS011;11667;51.706;4.856;2023-06-22T13:32:54;37.30;;;24.45;;
23001;SDS011;11667;51.706;4.856;2023-06-22T13:35:23;38.55;;;23.83;;
23001;SDS011;11667;51.706;4.856;2023-06-22T13:37:53;38.02;;;22.87;;
23001;SDS011;11667;51.706;4.856;2023-06-22T13:40:22;35.60;;;22.52;;
23001;SDS011;11667;51.706;4.856;2023-06-22T13:42:51;34.65;;;22.48;;
23001;SDS011;11667;51.706;4.856;2023-06-22T13:45:22;34.80;;;22.35;;
23001;SDS011;11667;51.706;4.856;2023-06-22T13:47:52;35.20;;;23.45;;
23001;SDS011;11667;51.706;4.856;2023-06-22T13:50:21;37.17;;;23.50;;
23001;SDS011;11667;51.706;4.856;2023-06-22T13:52:50;35.33;;;23.67;;
23001;SDS011;11667;51.706;4.856;2023-06-22T13:55:20;37.25;;;23.40;;
23001;SDS011;11667;51.706;4.856;2023-06-22T13:57:51;36.38;;;22.95;;
23001;SDS011;11667;51.706;4.856;2023-06-22T14:00:20;33.85;;;22.32;;
23001;SDS011;11667;51.706;4.856;2023-06-22T14:02:49;39.18;;;22.50;;
23001;SDS011;11667;51.706;4.856;2023-06-22T14:05:19;37.83;;;23.42;;
23001;SDS011;11667;51.706;4.856;2023-06-22T14:07:49;38.23;;;23.07;;
23001;SDS011;11667;51.706;4.856;2023-06-22T14:10:18;36.80;;;23.55;;
23001;SDS011;11667;51.706;4.856;2023-06-22T14:12:47;37.95;;;23.18;;
23001;SDS011;11667;51.706;4.856;2023-06-22T14:15:17;38.45;;;24.25;;
23001;SDS011;11667;51.706;4.856;2023-06-22T14:17:46;39.45;;;24.75;;
23001;SDS011;11667;51.706;4.856;2023-06-22T14:20:15;39.18;;;24.45;;
23001;SDS011;11667;51.706;4.856;2023-06-22T14:22:45;42.17;;;24.47;;
23001;SDS011;11667;51.706;4.856;2023-06-22T14:25:14;34.43;;;22.67;;
23001;SDS011;11667;51.706;4.856;2023-06-22T14:27:44;39.00;;;23.52;;
23001;SDS011;11667;51.706;4.856;2023-06-22T14:30:13;39.53;;;23.60;;
23001;SDS011;11667;51.706;4.856;2023-06-22T14:32:43;38.30;;;23.57;;
23001;SDS011;11667;51.706;4.856;2023-06-22T14:35:13;37.17;;;23.47;;
23001;SDS011;11667;51.706;4.856;2023-06-22T14:37:42;38.05;;;23.20;;
23001;SDS011;11667;51.706;4.856;2023-06-22T14:40:12;38.13;;;23.73;;
23001;SDS011;11667;51.706;4.856;2023-06-22T14:42:41;43.78;;;24.63;;
23001;SDS011;11667;51.706;4.856;2023-06-22T14:45:10;35.88;;;24.20;;
23001;SDS011;11667;51.706;4.856;2023-06-22T14:47:41;40.90;;;25.00;;
23001;SDS011;11667;51.706;4.856;2023-06-22T14:50:11;41.28;;;25.35;;
23001;SDS011;11667;51.706;4.856;2023-06-22T14:52:41;39.92;;;24.65;;
23001;SDS011;11667;51.706;4.856;2023-06-22T14:55:11;38.83;;;25.12;;